sensor_id;sensor_type;location;lat;lon;timestamp;P1;durP1;ratioP1;P2;durP2;ratioP2
9801;SDS011;4940;50.900;4.672;2023-08-07T00:01:34;51.20;;;46.67;;
9801;SDS011;4940;50.900;4.672;2023-08-07T00:04:03;48.42;;;44.40;;
9801;SDS011;4940;50.900;4.672;2023-08-07T00:06:30;47.97;;;43.97;;
9801;SDS011;4940;50.900;4.672;2023-08-07T00:08:57;50.10;;;45.95;;
9801;SDS011;4940;50.900;4.672;2023-08-07T00:11:25;50.33;;;45.88;;
9801;SDS011;4940;50.900;4.672;2023-08-07T00:13:53;46.83;;;42.90;;
9801;SDS011;4940;50.900;4.672;2023-08-07T00:16:21;47.55;;;43.65;;
9801;SDS011;4940;50.900;4.672;2023-08-07T00:18:48;46.53;;;42.58;;
9801;SDS011;4940;50.900;4.672;2023-08-07T00:21:19;43.33;;;39.63;;
9801;SDS011;4940;50.900;4.672;2023-08-07T00:23:46;43.97;;;39.72;;
9801;SDS011;4940;50.900;4.672;2023-08-07T00:26:14;43.60;;;39.95;;
9801;SDS011;4940;50.900;4.672;2023-08-07T00:28:42;41.88;;;38.20;;
9801;SDS011;4940;50.900;4.672;2023-08-07T00:31:09;42.13;;;38.22;;
9801;SDS011;4940;50.900;4.672;2023-08-07T00:33:37;42.53;;;38.70;;
9801;SDS011;4940;50.900;4.672;2023-08-07T00:36:05;46.72;;;42.85;;
9801;SDS011;4940;50.900;4.672;2023-08-07T00:38:33;45.47;;;41.80;;
9801;SDS011;4940;50.900;4.672;2023-08-07T00:41:01;42.00;;;38.38;;
9801;SDS011;4940;50.900;4.672;2023-08-07T00:43:28;44.35;;;40.50;;
9801;SDS011;4940;50.900;4.672;2023-08-07T00:45:55;47.70;;;43.60;;
9801;SDS011;4940;50.900;4.672;2023-08-07T00:48:23;45.83;;;42.13;;
9801;SDS011;4940;50.900;4.672;2023-08-07T00:50:51;44.40;;;40.53;;
9801;SDS011;4940;50.900;4.672;2023-08-07T00:53:20;40.88;;;37.25;;
9801;SDS011;4940;50.900;4.672;2023-08-07T00:55:49;48.17;;;44.15;;
9801;SDS011;4940;50.900;4.672;2023-08-07T00:58:16;46.80;;;42.90;;
9801;SDS011;4940;50.900;4.672;2023-08-07T01:00:44;42.90;;;39.20;;
9801;SDS011;4940;50.900;4.672;2023-08-07T01:03:12;42.40;;;38.83;;
9801;SDS011;4940;50.900;4.672;2023-08-07T01:05:40;39.72;;;36.53;;
9801;SDS011;4940;50.900;4.672;2023-08-07T01:08:07;41.60;;;37.90;;
9801;SDS011;4940;50.900;4.672;2023-08-07T01:10:35;42.88;;;39.28;;
9801;SDS011;4940;50.900;4.672;2023-08-07T01:13:16;40.55;;;37.25;;
9801;SDS011;4940;50.900;4.672;2023-08-07T01:15:48;45.67;;;42.10;;
9801;SDS011;4940;50.900;4.672;2023-08-07T01:18:18;43.97;;;40.30;;
9801;SDS011;4940;50.900;4.672;2023-08-07T01:20:48;42.38;;;38.88;;
9801;SDS011;4940;50.900;4.672;2023-08-07T01:23:16;47.28;;;43.38;;
9801;SDS011;4940;50.900;4.672;2023-08-07T01:25:43;47.00;;;43.35;;
9801;SDS011;4940;50.900;4.672;2023-08-07T01:28:12;45.83;;;42.20;;
9801;SDS011;4940;50.900;4.672;2023-08-07T01:30:45;45.83;;;42.22;;
9801;SDS011;4940;50.900;4.672;2023-08-07T01:33:16;46.90;;;43.13;;
9801;SDS011;4940;50.900;4.672;2023-08-07T01:35:53;49.83;;;45.92;;
9801;SDS011;4940;50.900;4.672;2023-08-07T01:38:24;51.67;;;47.70;;
9801;SDS011;4940;50.900;4.672;2023-08-07T01:40:53;45.67;;;42.17;;
9801;SDS011;4940;50.900;4.672;2023-08-07T01:43:21;44.45;;;40.85;;
9801;SDS011;4940;50.900;4.672;2023-08-07T01:45:48;47.75;;;44.15;;
9801;SDS011;4940;50.900;4.672;2023-08-07T01:48:16;44.97;;;41.40;;
9801;SDS011;4940;50.900;4.672;2023-08-07T01:50:43;44.30;;;40.80;;
9801;SDS011;4940;50.900;4.672;2023-08-07T01:53:10;46.28;;;42.78;;
9801;SDS011;4940;50.900;4.672;2023-08-07T01:55:39;44.75;;;41.50;;
9801;SDS011;4940;50.900;4.672;2023-08-07T01:58:06;41.90;;;38.40;;
9801;SDS011;4940;50.900;4.672;2023-08-07T02:00:34;39.92;;;36.58;;
9801;SDS011;4940;50.900;4.672;2023-08-07T02:03:01;44.05;;;40.45;;
9801;SDS011;4940;50.900;4.672;2023-08-07T02:05:29;43.25;;;39.65;;
9801;SDS011;4940;50.900;4.672;2023-08-07T02:07:56;42.58;;;39.10;;
9801;SDS011;4940;50.900;4.672;2023-08-07T02:10:23;41.22;;;37.97;;
9801;SDS011;4940;50.900;4.672;2023-08-07T02:12:52;39.90;;;36.95;;
9801;SDS011;4940;50.900;4.672;2023-08-07T02:15:19;42.28;;;39.13;;
9801;SDS011;4940;50.900;4.672;2023-08-07T02:17:47;42.67;;;39.38;;
9801;SDS011;4940;50.900;4.672;2023-08-07T02:20:14;39.35;;;36.17;;
9801;SDS011;4940;50.900;4.672;2023-08-07T02:22:41;39.70;;;36.50;;
9801;SDS011;4940;50.900;4.672;2023-08-07T02:25:09;38.53;;;35.53;;
9801;SDS011;4940;50.900;4.672;2023-08-07T02:27:36;36.47;;;33.45;;
9801;SDS011;4940;50.900;4.672;2023-08-07T02:30:06;36.47;;;33.50;;
9801;SDS011;4940;50.900;4.672;2023-08-07T02:32:33;38.35;;;35.50;;
9801;SDS011;4940;50.900;4.672;2023-08-07T02:35:01;36.13;;;33.42;;
9801;SDS011;4940;50.900;4.672;2023-08-07T02:37:28;39.42;;;36.15;;
9801;SDS011;4940;50.900;4.672;2023-08-07T02:39:56;39.22;;;36.13;;
9801;SDS011;4940;50.900;4.672;2023-08-07T02:42:23;40.33;;;37.15;;
9801;SDS011;4940;50.900;4.672;2023-08-07T02:44:50;42.83;;;39.83;;
9801;SDS011;4940;50.900;4.672;2023-08-07T02:47:19;39.85;;;36.47;;
9801;SDS011;4940;50.900;4.672;2023-08-07T02:49:47;39.75;;;36.60;;
9801;SDS011;4940;50.900;4.672;2023-08-07T02:52:14;37.72;;;34.92;;
9801;SDS011;4940;50.900;4.672;2023-08-07T02:54:41;37.05;;;33.90;;
9801;SDS011;4940;50.900;4.672;2023-08-07T02:57:09;38.72;;;35.40;;
9801;SDS011;4940;50.900;4.672;2023-08-07T02:59:36;37.42;;;34.50;;
9801;SDS011;4940;50.900;4.672;2023-08-07T03:02:04;37.75;;;34.75;;
9801;SDS011;4940;50.900;4.672;2023-08-07T03:04:33;39.60;;;36.70;;
9801;SDS011;4940;50.900;4.672;2023-08-07T03:07:00;35.45;;;32.55;;
9801;SDS011;4940;50.900;4.672;2023-08-07T03:09:28;33.90;;;31.27;;
9801;SDS011;4940;50.900;4.672;2023-08-07T03:11:55;38.42;;;35.33;;
9801;SDS011;4940;50.900;4.672;2023-08-07T03:14:28;35.78;;;32.83;;
9801;SDS011;4940;50.900;4.672;2023-08-07T03:16:56;37.33;;;34.45;;
9801;SDS011;4940;50.900;4.672;2023-08-07T03:19:23;36.30;;;33.60;;
9801;SDS011;4940;50.900;4.672;2023-08-07T03:21:52;36.35;;;33.33;;
9801;SDS011;4940;50.900;4.672;2023-08-07T03:24:19;34.20;;;31.50;;
9801;SDS011;4940;50.900;4.672;2023-08-07T03:26:46;33.97;;;31.48;;
9801;SDS011;4940;50.900;4.672;2023-08-07T03:29:14;34.35;;;31.30;;
9801;SDS011;4940;50.900;4.672;2023-08-07T03:31:41;34.95;;;32.25;;
9801;SDS011;4940;50.900;4.672;2023-08-07T03:34:09;35.95;;;32.85;;
9801;SDS011;4940;50.900;4.672;2023-08-07T03:36:36;37.83;;;34.90;;
9801;SDS011;4940;50.900;4.672;2023-08-07T03:39:05;46.97;;;43.38;;
9801;SDS011;4940;50.900;4.672;2023-08-07T03:41:33;34.55;;;31.65;;
9801;SDS011;4940;50.900;4.672;2023-08-07T03:44:00;34.53;;;31.73;;
9801;SDS011;4940;50.900;4.672;2023-08-07T03:46:28;39.60;;;36.38;;
9801;SDS011;4940;50.900;4.672;2023-08-07T03:48:55;37.55;;;34.65;;
9801;SDS011;4940;50.900;4.672;2023-08-07T03:51:23;38.38;;;35.45;;
9801;SDS011;4940;50.900;4.672;2023-08-07T03:53:50;35.35;;;32.47;;
9801;SDS011;4940;50.900;4.672;2023-08-07T03:56:19;38.47;;;35.55;;
9801;SDS011;4940;50.900;4.672;2023-08-07T03:58:46;37.53;;;34.83;;
9801;SDS011;4940;50.900;4.672;2023-08-07T04:01:15;35.58;;;32.97;;
9801;SDS011;4940;50.900;4.672;2023-08-07T04:03:42;42.25;;;38.33;;
9801;SDS011;4940;50.900;4.672;2023-08-07T04:06:10;36.78;;;33.90;;
9801;SDS011;4940;50.900;4.672;2023-08-07T04:08:41;34.30;;;31.90;;
9801;SDS011;4940;50.900;4.672;2023-08-07T04:11:08;33.03;;;30.63;;
9801;SDS011;4940;50.900;4.672;2023-08-07T04:13:37;46.85;;;43.60;;
9801;SDS011;4940;50.900;4.672;2023-08-07T04:16:04;45.47;;;42.17;;
9801;SDS011;4940;50.900;4.672;2023-08-07T04:18:32;42.20;;;39.00;;
9801;SDS011;4940;50.900;4.672;2023-08-07T04:21:00;44.80;;;41.45;;
9801;SDS011;4940;50.900;4.672;2023-08-07T04:23:27;43.22;;;40.10;;
9801;SDS011;4940;50.900;4.672;2023-08-07T04:25:57;43.30;;;40.20;;
9801;SDS011;4940;50.900;4.672;2023-08-07T04:28:24;41.70;;;38.40;;
9801;SDS011;4940;50.900;4.672;2023-08-07T04:30:53;40.70;;;37.67;;
9801;SDS011;4940;50.900;4.672;2023-08-07T04:33:20;41.58;;;38.47;;
9801;SDS011;4940;50.900;4.672;2023-08-07T04:35:48;39.03;;;35.90;;
9801;SDS011;4940;50.900;4.672;2023-08-07T04:38:15;37.85;;;34.95;;
9801;SDS011;4940;50.900;4.672;2023-08-07T04:40:43;37.58;;;34.78;;
9801;SDS011;4940;50.900;4.672;2023-08-07T04:43:11;35.67;;;32.92;;
9801;SDS011;4940;50.900;4.672;2023-08-07T04:45:38;32.85;;;30.25;;
9801;SDS011;4940;50.900;4.672;2023-08-07T04:48:07;32.00;;;29.38;;
9801;SDS011;4940;50.900;4.672;2023-08-07T04:50:35;31.15;;;28.75;;
9801;SDS011;4940;50.900;4.672;2023-08-07T04:53:02;31.60;;;28.95;;
9801;SDS011;4940;50.900;4.672;2023-08-07T04:55:30;30.33;;;27.92;;
9801;SDS011;4940;50.900;4.672;2023-08-07T04:57:57;32.15;;;29.52;;
9801;SDS011;4940;50.900;4.672;2023-08-07T05:00:25;30.70;;;28.33;;
9801;SDS011;4940;50.900;4.672;2023-08-07T05:02:53;32.17;;;29.38;;
9801;SDS011;4940;50.900;4.672;2023-08-07T05:05:22;29.80;;;27.65;;
9801;SDS011;4940;50.900;4.672;2023-08-07T05:07:50;32.60;;;30.30;;
9801;SDS011;4940;50.900;4.672;2023-08-07T05:10:17;31.88;;;29.27;;
9801;SDS011;4940;50.900;4.672;2023-08-07T05:12:44;30.75;;;28.35;;
9801;SDS011;4940;50.900;4.672;2023-08-07T05:15:12;31.77;;;29.38;;
9801;SDS011;4940;50.900;4.672;2023-08-07T05:17:39;33.05;;;30.55;;
9801;SDS011;4940;50.900;4.672;2023-08-07T05:20:07;32.92;;;30.13;;
9801;SDS011;4940;50.900;4.672;2023-08-07T05:22:37;32.25;;;29.70;;
9801;SDS011;4940;50.900;4.672;2023-08-07T05:25:04;32.28;;;29.63;;
9801;SDS011;4940;50.900;4.672;2023-08-07T05:27:32;32.97;;;30.08;;
9801;SDS011;4940;50.900;4.672;2023-08-07T05:30:00;32.75;;;30.25;;
9801;SDS011;4940;50.900;4.672;2023-08-07T05:32:27;32.33;;;29.83;;
9801;SDS011;4940;50.900;4.672;2023-08-07T05:34:55;32.90;;;29.90;;
9801;SDS011;4940;50.900;4.672;2023-08-07T05:37:22;33.67;;;30.88;;
9801;SDS011;4940;50.900;4.672;2023-08-07T05:39:51;34.55;;;31.90;;
9801;SDS011;4940;50.900;4.672;2023-08-07T05:42:18;33.15;;;30.98;;
9801;SDS011;4940;50.900;4.672;2023-08-07T05:44:46;30.60;;;28.48;;
9801;SDS011;4940;50.900;4.672;2023-08-07T05:47:13;17.13;;;16.17;;
9801;SDS011;4940;50.900;4.672;2023-08-07T05:49:41;7.22;;;4.55;;
9801;SDS011;4940;50.900;4.672;2023-08-07T05:52:08;2.05;;;1.60;;
9801;SDS011;4940;50.900;4.672;2023-08-07T05:54:36;4.45;;;1.35;;
9801;SDS011;4940;50.900;4.672;2023-08-07T05:57:05;2.88;;;1.65;;
9801;SDS011;4940;50.900;4.672;2023-08-07T05:59:32;4.47;;;1.77;;
9801;SDS011;4940;50.900;4.672;2023-08-07T06:02:01;6.53;;;1.63;;
9801;SDS011;4940;50.900;4.672;2023-08-07T06:04:28;2.28;;;1.23;;
9801;SDS011;4940;50.900;4.672;2023-08-07T06:06:56;3.72;;;1.60;;
9801;SDS011;4940;50.900;4.672;2023-08-07T06:09:23;1.83;;;1.42;;
9801;SDS011;4940;50.900;4.672;2023-08-07T06:11:51;3.13;;;1.10;;
9801;SDS011;4940;50.900;4.672;2023-08-07T06:14:19;4.25;;;1.60;;
9801;SDS011;4940;50.900;4.672;2023-08-07T06:16:46;3.28;;;1.40;;
9801;SDS011;4940;50.900;4.672;2023-08-07T06:19:14;3.15;;;1.42;;
9801;SDS011;4940;50.900;4.672;2023-08-07T06:21:41;1.80;;;1.40;;
9801;SDS011;4940;50.900;4.672;2023-08-07T06:24:09;3.42;;;1.55;;
9801;SDS011;4940;50.900;4.672;2023-08-07T06:26:37;1.85;;;1.35;;
9801;SDS011;4940;50.900;4.672;2023-08-07T06:29:04;1.40;;;1.25;;
9801;SDS011;4940;50.900;4.672;2023-08-07T06:31:33;3.03;;;1.58;;
9801;SDS011;4940;50.900;4.672;2023-08-07T06:34:00;3.50;;;1.50;;
9801;SDS011;4940;50.900;4.672;2023-08-07T06:36:28;2.50;;;1.42;;
9801;SDS011;4940;50.900;4.672;2023-08-07T06:38:55;3.53;;;1.40;;
9801;SDS011;4940;50.900;4.672;2023-08-07T06:41:22;2.50;;;1.20;;
9801;SDS011;4940;50.900;4.672;2023-08-07T06:43:50;1.92;;;1.65;;
9801;SDS011;4940;50.900;4.672;2023-08-07T06:46:17;3.28;;;1.40;;
9801;SDS011;4940;50.900;4.672;2023-08-07T06:48:50;4.03;;;1.63;;
9801;SDS011;4940;50.900;4.672;2023-08-07T06:51:18;3.20;;;1.50;;
9801;SDS011;4940;50.900;4.672;2023-08-07T06:53:45;2.38;;;1.30;;
9801;SDS011;4940;50.900;4.672;2023-08-07T06:56:13;3.80;;;1.13;;
9801;SDS011;4940;50.900;4.672;2023-08-07T06:58:40;2.55;;;1.38;;
9801;SDS011;4940;50.900;4.672;2023-08-07T07:01:08;1.98;;;1.15;;
9801;SDS011;4940;50.900;4.672;2023-08-07T07:03:35;3.95;;;1.30;;
9801;SDS011;4940;50.900;4.672;2023-08-07T07:06:04;2.53;;;1.52;;
9801;SDS011;4940;50.900;4.672;2023-08-07T07:08:31;2.03;;;1.23;;
9801;SDS011;4940;50.900;4.672;2023-08-07T07:10:58;2.80;;;1.30;;
9801;SDS011;4940;50.900;4.672;2023-08-07T07:13:26;1.38;;;1.10;;
9801;SDS011;4940;50.900;4.672;2023-08-07T07:15:53;3.25;;;1.42;;
9801;SDS011;4940;50.900;4.672;2023-08-07T07:18:21;3.45;;;1.63;;
9801;SDS011;4940;50.900;4.672;2023-08-07T07:20:55;3.20;;;1.38;;
9801;SDS011;4940;50.900;4.672;2023-08-07T07:23:25;1.80;;;1.30;;
9801;SDS011;4940;50.900;4.672;2023-08-07T07:25:52;2.83;;;1.45;;
9801;SDS011;4940;50.900;4.672;2023-08-07T07:28:19;4.03;;;1.42;;
9801;SDS011;4940;50.900;4.672;2023-08-07T07:30:47;2.42;;;1.33;;
9801;SDS011;4940;50.900;4.672;2023-08-07T07:33:14;6.63;;;1.70;;
9801;SDS011;4940;50.900;4.672;2023-08-07T07:35:42;2.83;;;1.40;;
9801;SDS011;4940;50.900;4.672;2023-08-07T07:38:10;1.88;;;1.35;;
9801;SDS011;4940;50.900;4.672;2023-08-07T07:40:38;3.85;;;1.38;;
9801;SDS011;4940;50.900;4.672;2023-08-07T07:43:05;3.10;;;1.60;;
9801;SDS011;4940;50.900;4.672;2023-08-07T07:45:33;2.75;;;1.52;;
9801;SDS011;4940;50.900;4.672;2023-08-07T07:48:01;2.30;;;1.33;;
9801;SDS011;4940;50.900;4.672;2023-08-07T07:50:28;2.22;;;1.35;;
9801;SDS011;4940;50.900;4.672;2023-08-07T07:52:56;3.72;;;1.35;;
9801;SDS011;4940;50.900;4.672;2023-08-07T07:55:24;2.30;;;1.55;;
9801;SDS011;4940;50.900;4.672;2023-08-07T07:57:53;3.70;;;1.50;;
9801;SDS011;4940;50.900;4.672;2023-08-07T08:00:21;3.33;;;1.50;;
9801;SDS011;4940;50.900;4.672;2023-08-07T08:02:51;3.40;;;1.90;;
9801;SDS011;4940;50.900;4.672;2023-08-07T08:05:19;2.55;;;1.30;;
9801;SDS011;4940;50.900;4.672;2023-08-07T08:07:47;3.35;;;2.08;;
9801;SDS011;4940;50.900;4.672;2023-08-07T08:10:14;2.83;;;1.60;;
9801;SDS011;4940;50.900;4.672;2023-08-07T08:12:42;2.92;;;1.52;;
9801;SDS011;4940;50.900;4.672;2023-08-07T08:15:10;1.83;;;1.23;;
9801;SDS011;4940;50.900;4.672;2023-08-07T08:17:38;2.17;;;1.35;;
9801;SDS011;4940;50.900;4.672;2023-08-07T08:20:05;2.53;;;1.45;;
9801;SDS011;4940;50.900;4.672;2023-08-07T08:22:33;3.92;;;1.58;;
9801;SDS011;4940;50.900;4.672;2023-08-07T08:25:01;2.72;;;1.50;;
9801;SDS011;4940;50.900;4.672;2023-08-07T08:27:30;5.72;;;2.00;;
9801;SDS011;4940;50.900;4.672;2023-08-07T08:29:57;2.30;;;1.48;;
9801;SDS011;4940;50.900;4.672;2023-08-07T08:32:25;1.52;;;1.40;;
9801;SDS011;4940;50.900;4.672;2023-08-07T08:34:53;3.05;;;1.80;;
9801;SDS011;4940;50.900;4.672;2023-08-07T08:37:20;3.55;;;1.55;;
9801;SDS011;4940;50.900;4.672;2023-08-07T08:39:48;4.22;;;1.42;;
9801;SDS011;4940;50.900;4.672;2023-08-07T08:42:16;3.45;;;1.70;;
9801;SDS011;4940;50.900;4.672;2023-08-07T08:44:44;3.83;;;1.80;;
9801;SDS011;4940;50.900;4.672;2023-08-07T08:47:17;2.83;;;1.67;;
9801;SDS011;4940;50.900;4.672;2023-08-07T08:49:47;2.95;;;1.58;;
9801;SDS011;4940;50.900;4.672;2023-08-07T08:52:17;4.47;;;1.67;;
9801;SDS011;4940;50.900;4.672;2023-08-07T08:54:45;2.03;;;1.50;;
9801;SDS011;4940;50.900;4.672;2023-08-07T08:57:14;3.65;;;1.50;;
9801;SDS011;4940;50.900;4.672;2023-08-07T08:59:41;1.67;;;1.42;;
9801;SDS011;4940;50.900;4.672;2023-08-07T09:02:09;4.30;;;2.33;;
9801;SDS011;4940;50.900;4.672;2023-08-07T09:04:37;2.17;;;1.60;;
9801;SDS011;4940;50.900;4.672;2023-08-07T09:07:06;3.08;;;1.58;;
9801;SDS011;4940;50.900;4.672;2023-08-07T09:09:33;3.28;;;1.83;;
9801;SDS011;4940;50.900;4.672;2023-08-07T09:12:00;3.08;;;1.55;;
9801;SDS011;4940;50.900;4.672;2023-08-07T09:14:29;3.70;;;1.52;;
9801;SDS011;4940;50.900;4.672;2023-08-07T09:17:00;3.38;;;1.70;;
9801;SDS011;4940;50.900;4.672;2023-08-07T09:19:32;2.55;;;1.45;;
9801;SDS011;4940;50.900;4.672;2023-08-07T09:21:59;4.10;;;1.40;;
9801;SDS011;4940;50.900;4.672;2023-08-07T09:24:28;2.55;;;1.95;;
9801;SDS011;4940;50.900;4.672;2023-08-07T09:26:55;3.55;;;1.80;;
9801;SDS011;4940;50.900;4.672;2023-08-07T09:29:23;3.13;;;1.70;;
9801;SDS011;4940;50.900;4.672;2023-08-07T09:31:51;2.53;;;1.60;;
9801;SDS011;4940;50.900;4.672;2023-08-07T09:34:19;2.63;;;1.40;;
9801;SDS011;4940;50.900;4.672;2023-08-07T09:36:47;2.38;;;1.50;;
9801;SDS011;4940;50.900;4.672;2023-08-07T09:39:14;2.53;;;1.23;;
9801;SDS011;4940;50.900;4.672;2023-08-07T09:41:43;2.08;;;1.30;;
9801;SDS011;4940;50.900;4.672;2023-08-07T09:44:10;1.67;;;1.48;;
9801;SDS011;4940;50.900;4.672;2023-08-07T09:46:41;3.10;;;1.35;;
9801;SDS011;4940;50.900;4.672;2023-08-07T09:49:09;1.30;;;1.20;;
9801;SDS011;4940;50.900;4.672;2023-08-07T09:51:41;3.00;;;1.45;;
9801;SDS011;4940;50.900;4.672;2023-08-07T09:54:09;5.22;;;1.60;;
9801;SDS011;4940;50.900;4.672;2023-08-07T09:56:38;1.55;;;1.10;;
9801;SDS011;4940;50.900;4.672;2023-08-07T09:59:08;2.47;;;1.50;;
9801;SDS011;4940;50.900;4.672;2023-08-07T10:01:36;2.33;;;1.65;;
9801;SDS011;4940;50.900;4.672;2023-08-07T10:04:05;3.00;;;1.30;;
9801;SDS011;4940;50.900;4.672;2023-08-07T10:06:33;1.30;;;1.20;;
9801;SDS011;4940;50.900;4.672;2023-08-07T10:09:01;1.50;;;1.40;;
9801;SDS011;4940;50.900;4.672;2023-08-07T10:11:30;5.32;;;1.40;;
9801;SDS011;4940;50.900;4.672;2023-08-07T10:13:57;2.28;;;1.40;;
9801;SDS011;4940;50.900;4.672;2023-08-07T10:16:27;2.72;;;1.52;;
9801;SDS011;4940;50.900;4.672;2023-08-07T10:18:54;1.75;;;1.45;;
9801;SDS011;4940;50.900;4.672;2023-08-07T10:21:22;1.92;;;1.55;;
9801;SDS011;4940;50.900;4.672;2023-08-07T10:23:51;1.48;;;1.38;;
9801;SDS011;4940;50.900;4.672;2023-08-07T10:26:20;2.70;;;1.30;;
9801;SDS011;4940;50.900;4.672;2023-08-07T10:28:49;2.88;;;1.50;;
9801;SDS011;4940;50.900;4.672;2023-08-07T10:31:18;1.58;;;1.40;;
9801;SDS011;4940;50.900;4.672;2023-08-07T10:33:50;1.92;;;1.52;;
9801;SDS011;4940;50.900;4.672;2023-08-07T10:36:17;2.42;;;1.45;;
9801;SDS011;4940;50.900;4.672;2023-08-07T10:38:45;2.33;;;1.52;;
9801;SDS011;4940;50.900;4.672;2023-08-07T10:41:16;1.40;;;1.30;;
9801;SDS011;4940;50.900;4.672;2023-08-07T10:43:45;1.63;;;1.52;;
9801;SDS011;4940;50.900;4.672;2023-08-07T10:46:14;2.42;;;1.50;;
9801;SDS011;4940;50.900;4.672;2023-08-07T10:48:42;2.30;;;1.40;;
9801;SDS011;4940;50.900;4.672;2023-08-07T10:51:13;1.88;;;1.67;;
9801;SDS011;4940;50.900;4.672;2023-08-07T10:53:41;3.00;;;1.60;;
9801;SDS011;4940;50.900;4.672;2023-08-07T10:56:10;2.10;;;1.17;;
9801;SDS011;4940;50.900;4.672;2023-08-07T10:58:41;1.40;;;1.30;;
9801;SDS011;4940;50.900;4.672;2023-08-07T11:01:18;5.50;;;1.50;;
9801;SDS011;4940;50.900;4.672;2023-08-07T11:03:48;1.95;;;1.40;;
9801;SDS011;4940;50.900;4.672;2023-08-07T11:06:18;3.53;;;1.33;;
9801;SDS011;4940;50.900;4.672;2023-08-07T11:08:49;2.58;;;1.50;;
9801;SDS011;4940;50.900;4.672;2023-08-07T11:11:17;2.67;;;1.50;;
9801;SDS011;4940;50.900;4.672;2023-08-07T11:13:44;1.70;;;1.25;;
9801;SDS011;4940;50.900;4.672;2023-08-07T11:16:12;2.28;;;1.35;;
9801;SDS011;4940;50.900;4.672;2023-08-07T11:18:39;1.75;;;1.25;;
9801;SDS011;4940;50.900;4.672;2023-08-07T11:21:08;1.48;;;1.38;;
9801;SDS011;4940;50.900;4.672;2023-08-07T11:23:37;1.67;;;1.58;;
9801;SDS011;4940;50.900;4.672;2023-08-07T11:26:05;2.80;;;1.70;;
9801;SDS011;4940;50.900;4.672;2023-08-07T11:28:33;1.30;;;1.20;;
9801;SDS011;4940;50.900;4.672;2023-08-07T11:31:00;1.30;;;1.20;;
9801;SDS011;4940;50.900;4.672;2023-08-07T11:33:28;1.58;;;1.48;;
9801;SDS011;4940;50.900;4.672;2023-08-07T11:35:56;2.72;;;1.40;;
9801;SDS011;4940;50.900;4.672;2023-08-07T11:38:30;2.03;;;1.30;;
9801;SDS011;4940;50.900;4.672;2023-08-07T11:41:00;3.88;;;1.85;;
9801;SDS011;4940;50.900;4.672;2023-08-07T11:43:28;3.45;;;1.30;;
9801;SDS011;4940;50.900;4.672;2023-08-07T11:45:58;1.73;;;1.30;;
9801;SDS011;4940;50.900;4.672;2023-08-07T11:48:27;4.00;;;1.70;;
9801;SDS011;4940;50.900;4.672;2023-08-07T11:50:56;2.70;;;1.25;;
9801;SDS011;4940;50.900;4.672;2023-08-07T11:53:24;2.15;;;1.45;;
9801;SDS011;4940;50.900;4.672;2023-08-07T11:55:51;1.95;;;1.15;;
9801;SDS011;4940;50.900;4.672;2023-08-07T11:58:22;2.15;;;1.48;;
9801;SDS011;4940;50.900;4.672;2023-08-07T12:00:50;2.08;;;1.15;;
9801;SDS011;4940;50.900;4.672;2023-08-07T12:03:25;1.92;;;1.50;;
9801;SDS011;4940;50.900;4.672;2023-08-07T12:05:53;5.50;;;1.50;;
9801;SDS011;4940;50.900;4.672;2023-08-07T12:08:21;2.38;;;1.33;;
9801;SDS011;4940;50.900;4.672;2023-08-07T12:10:49;1.55;;;1.45;;
9801;SDS011;4940;50.900;4.672;2023-08-07T12:13:20;1.40;;;1.30;;
9801;SDS011;4940;50.900;4.672;2023-08-07T12:15:50;1.40;;;1.30;;
9801;SDS011;4940;50.900;4.672;2023-08-07T12:18:18;1.35;;;1.25;;
9801;SDS011;4940;50.900;4.672;2023-08-07T12:20:46;1.33;;;1.23;;
9801;SDS011;4940;50.900;4.672;2023-08-07T12:23:15;1.63;;;1.25;;
9801;SDS011;4940;50.900;4.672;2023-08-07T12:25:43;1.90;;;1.35;;
9801;SDS011;4940;50.900;4.672;2023-08-07T12:28:10;2.30;;;1.30;;
9801;SDS011;4940;50.900;4.672;2023-08-07T12:30:39;3.40;;;1.52;;
9801;SDS011;4940;50.900;4.672;2023-08-07T12:33:06;4.53;;;1.38;;
9801;SDS011;4940;50.900;4.672;2023-08-07T12:35:34;1.60;;;1.33;;
9801;SDS011;4940;50.900;4.672;2023-08-07T12:38:01;2.50;;;1.50;;
9801;SDS011;4940;50.900;4.672;2023-08-07T12:40:29;2.05;;;1.35;;
9801;SDS011;4940;50.900;4.672;2023-08-07T12:42:56;2.17;;;1.13;;
9801;SDS011;4940;50.900;4.672;2023-08-07T12:45:24;1.23;;;1.13;;
9801;SDS011;4940;50.900;4.672;2023-08-07T12:47:52;2.55;;;1.50;;
9801;SDS011;4940;50.900;4.672;2023-08-07T12:50:19;1.63;;;1.38;;
9801;SDS011;4940;50.900;4.672;2023-08-07T12:52:47;1.63;;;1.30;;
9801;SDS011;4940;50.900;4.672;2023-08-07T12:55:14;1.73;;;1.20;;
9801;SDS011;4940;50.900;4.672;2023-08-07T12:57:42;2.17;;;1.40;;
9801;SDS011;4940;50.900;4.672;2023-08-07T13:00:10;1.40;;;1.30;;
9801;SDS011;4940;50.900;4.672;2023-08-07T13:02:40;5.45;;;1.65;;
9801;SDS011;4940;50.900;4.672;2023-08-07T13:05:10;1.52;;;1.42;;
9801;SDS011;4940;50.900;4.672;2023-08-07T13:07:38;1.25;;;1.15;;
9801;SDS011;4940;50.900;4.672;2023-08-07T13:10:06;1.33;;;1.17;;
9801;SDS011;4940;50.900;4.672;2023-08-07T13:12:34;2.22;;;1.23;;
9801;SDS011;4940;50.900;4.672;2023-08-07T13:15:03;1.65;;;1.20;;
9801;SDS011;4940;50.900;4.672;2023-08-07T13:17:32;1.20;;;1.10;;
9801;SDS011;4940;50.900;4.672;2023-08-07T13:19:59;3.83;;;1.35;;
9801;SDS011;4940;50.900;4.672;2023-08-07T13:22:29;4.88;;;1.30;;
9801;SDS011;4940;50.900;4.672;2023-08-07T13:24:57;1.40;;;1.17;;
9801;SDS011;4940;50.900;4.672;2023-08-07T13:27:24;1.88;;;1.20;;
9801;SDS011;4940;50.900;4.672;2023-08-07T13:29:52;2.25;;;1.17;;
9801;SDS011;4940;50.900;4.672;2023-08-07T13:32:19;1.50;;;1.35;;
9801;SDS011;4940;50.900;4.672;2023-08-07T13:34:47;1.92;;;1.08;;
9801;SDS011;4940;50.900;4.672;2023-08-07T13:37:14;1.55;;;1.20;;
9801;SDS011;4940;50.900;4.672;2023-08-07T13:39:43;3.60;;;1.50;;
9801;SDS011;4940;50.900;4.672;2023-08-07T13:42:10;1.65;;;1.20;;
9801;SDS011;4940;50.900;4.672;2023-08-07T13:44:38;1.52;;;1.20;;
9801;SDS011;4940;50.900;4.672;2023-08-07T13:47:05;1.27;;;1.10;;
9801;SDS011;4940;50.900;4.672;2023-08-07T13:49:33;1.50;;;1.15;;
9801;SDS011;4940;50.900;4.672;2023-08-07T13:52:01;1.20;;;1.10;;
9801;SDS011;4940;50.900;4.672;2023-08-07T13:54:28;1.98;;;1.20;;
9801;SDS011;4940;50.900;4.672;2023-08-07T13:56:57;3.25;;;1.25;;
9801;SDS011;4940;50.900;4.672;2023-08-07T13:59:24;0.90;;;0.90;;
9801;SDS011;4940;50.900;4.672;2023-08-07T14:01:52;1.20;;;1.10;;
9801;SDS011;4940;50.900;4.672;2023-08-07T14:04:19;1.67;;;1.15;;
9801;SDS011;4940;50.900;4.672;2023-08-07T14:06:47;1.05;;;0.95;;
9801;SDS011;4940;50.900;4.672;2023-08-07T14:09:14;1.55;;;1.08;;
9801;SDS011;4940;50.900;4.672;2023-08-07T14:11:43;4.28;;;1.30;;
9801;SDS011;4940;50.900;4.672;2023-08-07T14:14:12;0.88;;;0.88;;
9801;SDS011;4940;50.900;4.672;2023-08-07T14:16:39;1.25;;;0.80;;
9801;SDS011;4940;50.900;4.672;2023-08-07T14:19:07;2.67;;;0.80;;
9801;SDS011;4940;50.900;4.672;2023-08-07T14:21:34;2.67;;;1.00;;
9801;SDS011;4940;50.900;4.672;2023-08-07T14:24:02;1.20;;;0.90;;
9801;SDS011;4940;50.900;4.672;2023-08-07T14:26:29;1.42;;;0.75;;
9801;SDS011;4940;50.900;4.672;2023-08-07T14:28:57;1.05;;;0.77;;
9801;SDS011;4940;50.900;4.672;2023-08-07T14:31:25;2.05;;;0.95;;
9801;SDS011;4940;50.900;4.672;2023-08-07T14:33:53;1.83;;;0.85;;
9801;SDS011;4940;50.900;4.672;2023-08-07T14:36:21;0.90;;;0.82;;
9801;SDS011;4940;50.900;4.672;2023-08-07T14:38:49;0.90;;;0.90;;
9801;SDS011;4940;50.900;4.672;2023-08-07T14:41:16;1.20;;;0.88;;
9801;SDS011;4940;50.900;4.672;2023-08-07T14:43:44;1.25;;;0.80;;
9801;SDS011;4940;50.900;4.672;2023-08-07T14:46:12;1.27;;;0.82;;
9801;SDS011;4940;50.900;4.672;2023-08-07T14:48:41;0.93;;;0.80;;
9801;SDS011;4940;50.900;4.672;2023-08-07T14:51:08;1.55;;;0.98;;
9801;SDS011;4940;50.900;4.672;2023-08-07T14:53:35;0.77;;;0.60;;
9801;SDS011;4940;50.900;4.672;2023-08-07T14:56:03;0.68;;;0.68;;
9801;SDS011;4940;50.900;4.672;2023-08-07T14:58:30;0.90;;;0.90;;
9801;SDS011;4940;50.900;4.672;2023-08-07T15:00:58;1.55;;;0.90;;
9801;SDS011;4940;50.900;4.672;2023-08-07T15:03:26;0.98;;;0.95;;
9801;SDS011;4940;50.900;4.672;2023-08-07T15:05:55;1.67;;;1.08;;
9801;SDS011;4940;50.900;4.672;2023-08-07T15:08:23;1.38;;;1.08;;
9801;SDS011;4940;50.900;4.672;2023-08-07T15:10:51;1.10;;;0.82;;